الصفحة الرئيسية
METAR-TAF:

METAR-TAF

مطار :

مطار أنتونيو بي وان بات الدولي

Hagåtña, غوام, الولايات المتحدة

دائرة عرض: 13-29N, خط طول: 144-48E, ارتفاع: 91 متر

مراقبة الطقس الحالي

تاريخ ووقت الإصدار 23 دقيقة قبل الساعة 08:54UTC
رياح هادئة
درجة الحرارة 26°درجة مئوية
الرطوبة 84%
ضغط 1012 hPa
الرؤية: 16.1 كم
غيوم متفرقة على ارتفاع 1600 قدم
غيوم مفككة على ارتفاع 2800 قدم
ملبد بالغيوم على ارتفاع 3600 قدم

METAR: PGUM 220854Z 00000KT 10SM SCT016 BKN028 OVC036 26/23 A2988 RMK AO2 SLP111 T02560233 53018

زمن: 19:17 (09:17 UTC)

توقعات

تاريخ ووقت الإصدار 3ساعات و 36 دقيقة قبل الساعة 05:41UTC
التوقعات صالحة من22 الساعة 06 UTC إلى 23 الساعة 12 UTC
ريح 7 عقدة من الجنوب/الجنوب الشرقي
الرؤية: 10 كم
غيوم متفرقة على ارتفاع 2000 قدم
غيوم متفرقة على ارتفاع 4000 قدم
غيوم متفرقة على ارتفاع 12000 قدم
زخات في الجوار
مؤقت
من 22 الساعة 06 UTC إلى 22 الساعة 08 UTC
الرؤية: 8.0 كم
غيوم متفرقة على ارتفاع 1500 قدم
غيوم مفككة على ارتفاع 3500 قدم
زخات من الأمطار الخفيفة

TAF: PGUM 220541Z 2206/2312 16007KT P6SM VCSH SCT020 SCT040 SCT120 TEMPO 2206/2208 5SM -SHRA SCT015 BKN035

أرصاد الطقس والتوقعات من أكثر من 4000 مطار (تقارير الطقس للمطار METAR والتنبؤ بالطقس بالمطارTAF).

المحطات المتاحة هي النقط الصفراء والحمراء على الخريطة.

حرك المؤشر فوق النقطة لمعرفة اسم المحطة.

ثم انقر لمعرفة أرصاد وتوقعات الطقس.

لتغيير الخارطة: اضغط على الأزرار الخضراء مع رمز الصليب الأسود للتكبير. على الزر الأخضر مع شرطة للتصغير، أو على الأسهم الخضراء للخرائط المجاورة.


METAR-TAF: